| time (UTC) | temp C | wind direction | speed KPH | gust KPH | rain 1hr cm | rain 24hr cm | rain mn cm | humidity % | barometer mb |
| 20260906143605 | 29 | 125 | 3.2 | 8.0 | 0.00 | 0.00 | 0.00 | 82 | 1013.9 |
| 20260906142705 | 28 | 189 | 3.2 | 8.0 | 0.00 | 0.00 | 0.00 | 85 | 1013.8 |
| 20260906141804 | 28 | 172 | 3.2 | 8.0 | 0.00 | 0.00 | 0.00 | 85 | 1013.8 |
| 20260906140905 | 28 | 189 | 1.6 | 4.8 | 0.00 | 0.00 | 0.00 | 87 | 1013.8 |
| 20260906140005 | 27 | 64 | 1.6 | 4.8 | 0.00 | 0.00 | 0.00 | 89 | 1013.9 |
| 20260906135404 | 27 | 119 | 1.6 | 4.8 | 0.00 | 0.00 | 0.00 | 91 | 1014.0 |
| 20260906134526 | 26 | 206 | 0.0 | 3.2 | 0.00 | 0.00 | 0.00 | 95 | 1013.8 |
| 20260906133604 | 26 | 212 | 1.6 | 4.8 | 0.00 | 0.00 | 0.00 | 97 | 1014.0 |
| 20260906132705 | 25 | 231 | 1.6 | 6.4 | 0.00 | 0.00 | 0.00 | 98 | 1013.9 |
| 20260906131804 | 25 | 201 | 1.6 | 3.2 | 0.00 | 0.00 | 0.00 | 98 | 1014.0 |
| 20260906130905 | 25 | 147 | 0.0 | 1.6 | 0.00 | 0.00 | 0.00 | 99 | 1014.0 |
| 20260906130005 | 25 | 144 | 0.0 | 1.6 | 0.00 | 0.00 | 0.00 | 100 | 1014.0 |
| 20260906125404 | 24 | 142 | 0.0 | 1.6 | 0.00 | 0.00 | 0.00 | 100 | 1014.2 |
| 20260906124504 | 24 | 224 | 0.0 | 1.6 | 0.00 | 0.00 | 0.00 | 100 | 1014.2 |
| 20260906123604 | 24 | 259 | 0.0 | 3.2 | 0.00 | 0.00 | 0.00 | 100 | 1014.4 |
| 20260906122705 | 23 | 8 | 0.0 | 1.6 | 0.00 | 0.00 | 0.00 | 100 | 1014.5 |
| 20260906121825 | 23 | 338 | 0.0 | 3.2 | 0.00 | 0.00 | 0.00 | 100 | 1014.4 |
| 20260906120925 | 23 | 345 | 0.0 | 3.2 | 0.00 | 0.00 | 0.00 | 100 | 1014.2 |
| 20260906120004 | 23 | 345 | 0.0 | 1.6 | 0.00 | 0.00 | 0.00 | 100 | 1014.1 |
| 20260906115425 | 23 | 345 | 0.0 | 1.6 | 0.00 | 0.00 | 0.00 | 100 | 1014.0 |
| 20260906114504 | 23 | 0 | 0.0 | 0.0 | 0.00 | 0.00 | 0.00 | 100 | 1013.9 |
| 20260906113604 | 23 | 0 | 0.0 | 0.0 | 0.00 | 0.00 | 0.00 | 100 | 1014.1 |
| 20260906112704 | 23 | 0 | 0.0 | 0.0 | 0.00 | 0.00 | 0.00 | 100 | 1014.0 |
| 20260906111804 | 23 | 345 | 0.0 | 1.6 | 0.00 | 0.00 | 0.00 | 100 | 1014.0 |
| 20260906110904 | 23 | 345 | 0.0 | 1.6 | 0.00 | 0.00 | 0.00 | 100 | 1013.9 |
| 20260906110004 | 23 | 0 | 0.0 | 0.0 | 0.00 | 0.00 | 0.00 | 100 | 1013.8 |
| 20260906105404 | 23 | 0 | 0.0 | 0.0 | 0.00 | 0.00 | 0.00 | 100 | 1013.7 |
| 20260906104504 | 23 | 0 | 0.0 | 0.0 | 0.00 | 0.00 | 0.00 | 100 | 1013.7 |
| 20260906103604 | 23 | 0 | 0.0 | 0.0 | 0.00 | 0.00 | 0.00 | 100 | 1013.6 |
| 20260906102704 | 23 | 0 | 0.0 | 0.0 | 0.00 | 0.00 | 0.00 | 100 | 1013.7 |
| 20260906101804 | 23 | 345 | 0.0 | 1.6 | 0.00 | 0.00 | 0.00 | 100 | 1013.4 |
| 20260906100904 | 23 | 345 | 0.0 | 1.6 | 0.00 | 0.00 | 0.00 | 100 | 1013.5 |
| 20260906100004 | 23 | 345 | 0.0 | 1.6 | 0.00 | 0.00 | 0.00 | 100 | 1013.4 |
| 20260906095425 | 23 | 345 | 0.0 | 1.6 | 0.00 | 0.00 | 0.00 | 100 | 1013.4 |
| 20260906094504 | 23 | 345 | 0.0 | 1.6 | 0.00 | 0.00 | 0.00 | 100 | 1013.4 |
| 20260906093604 | 24 | 350 | 0.0 | 3.2 | 0.00 | 0.00 | 0.00 | 100 | 1013.3 |
| 20260906092704 | 23 | 321 | 0.0 | 3.2 | 0.00 | 0.00 | 0.00 | 100 | 1013.2 |
| 20260906091804 | 23 | 321 | 0.0 | 3.2 | 0.00 | 0.00 | 0.00 | 100 | 1013.1 |
| 20260906090904 | 23 | 327 | 0.0 | 4.8 | 0.00 | 0.00 | 0.00 | 100 | 1013.1 |
| 20260906090004 | 23 | 345 | 0.0 | 1.6 | 0.00 | 0.00 | 0.00 | 100 | 1012.8 |
| 20260906085404 | 23 | 345 | 0.0 | 1.6 | 0.00 | 0.00 | 0.00 | 100 | 1012.9 |
| 20260906084503 | 24 | 0 | 0.0 | 0.0 | 0.00 | 0.00 | 0.00 | 100 | 1013.1 |
| 20260906083625 | 24 | 0 | 0.0 | 0.0 | 0.00 | 0.00 | 0.00 | 100 | 1013.1 |
| 20260906082703 | 24 | 345 | 0.0 | 1.6 | 0.00 | 0.00 | 0.00 | 100 | 1013.3 |
| 20260906081804 | 23 | 345 | 1.6 | 4.8 | 0.00 | 0.00 | 0.00 | 100 | 1013.3 |
| 20260906080903 | 23 | 339 | 1.6 | 4.8 | 0.00 | 0.00 | 0.00 | 100 | 1013.4 |
| 20260906080003 | 23 | 0 | 0.0 | 0.0 | 0.00 | 0.00 | 0.00 | 100 | 1013.3 |
| 20260906075403 | 23 | 0 | 0.0 | 0.0 | 0.00 | 0.00 | 0.00 | 100 | 1013.2 |
| 20260906074504 | 23 | 0 | 0.0 | 0.0 | 0.00 | 0.00 | 0.00 | 100 | 1013.1 |
| 20260906073603 | 23 | 0 | 0.0 | 0.0 | 0.00 | 0.00 | 0.00 | 99 | 1013.1 |
| 20260906072703 | 23 | 0 | 0.0 | 0.0 | 0.00 | 0.00 | 0.00 | 100 | 1013.1 |
| 20260906071803 | 23 | 0 | 0.0 | 0.0 | 0.00 | 0.00 | 0.00 | 100 | 1013.1 |
| 20260906070924 | 23 | 0 | 0.0 | 0.0 | 0.00 | 0.00 | 0.00 | 99 | 1013.0 |
| 20260906070024 | 23 | 0 | 0.0 | 0.0 | 0.00 | 0.00 | 0.00 | 99 | 1013.0 |
| 20260906065403 | 23 | 0 | 0.0 | 0.0 | 0.00 | 0.00 | 0.00 | 99 | 1013.0 |
| 20260906064503 | 23 | 0 | 0.0 | 0.0 | 0.00 | 0.00 | 0.00 | 99 | 1013.0 |
| 20260906063603 | 23 | 0 | 0.0 | 0.0 | 0.00 | 0.00 | 0.00 | 99 | 1013.0 |
| 20260906062703 | 24 | 0 | 0.0 | 0.0 | 0.00 | 0.00 | 0.00 | 99 | 1013.2 |
| 20260906061803 | 24 | 0 | 0.0 | 0.0 | 0.00 | 0.00 | 0.00 | 99 | 1013.2 |
| 20260906060903 | 24 | 0 | 0.0 | 0.0 | 0.00 | 0.00 | 0.00 | 99 | 1013.3 |
| 20260906060003 | 24 | 0 | 0.0 | 0.0 | 0.00 | 0.00 | 0.00 | 99 | 1013.5 |
| 20260906055403 | 24 | 0 | 0.0 | 0.0 | 0.00 | 0.00 | 0.00 | 99 | 1013.6 |
| 20260906054505 | 24 | 0 | 0.0 | 0.0 | 0.00 | 0.00 | 0.00 | 99 | 1013.7 |
| 20260906053605 | 24 | 0 | 0.0 | 0.0 | 0.00 | 0.00 | 0.00 | 98 | 1013.7 |
| 20260906052725 | 24 | 0 | 0.0 | 0.0 | 0.00 | 0.00 | 0.00 | 99 | 1013.6 |
| 20260906051805 | 24 | 238 | 0.0 | 1.6 | 0.00 | 0.00 | 0.00 | 98 | 1013.7 |
| 20260906050926 | 24 | 0 | 0.0 | 0.0 | 0.00 | 0.00 | 0.00 | 98 | 1013.8 |
| 20260906050026 | 24 | 0 | 0.0 | 0.0 | 0.00 | 0.00 | 0.00 | 98 | 1013.7 |
| 20260906045404 | 25 | 0 | 0.0 | 0.0 | 0.00 | 0.00 | 0.00 | 98 | 1013.9 |
| 20260906044504 | 25 | 0 | 0.0 | 0.0 | 0.00 | 0.00 | 0.00 | 98 | 1013.9 |
| 20260906043605 | 25 | 0 | 0.0 | 0.0 | 0.00 | 0.00 | 0.00 | 98 | 1013.7 |
| 20260906042704 | 25 | 0 | 0.0 | 0.0 | 0.00 | 0.00 | 0.00 | 97 | 1013.9 |
| 20260906041804 | 25 | 0 | 0.0 | 0.0 | 0.00 | 0.00 | 0.00 | 97 | 1014.0 |
| 20260906040905 | 25 | 0 | 0.0 | 0.0 | 0.00 | 0.00 | 0.00 | 97 | 1014.1 |
| 20260906040004 | 25 | 0 | 0.0 | 0.0 | 0.00 | 0.00 | 0.00 | 97 | 1014.2 |
| 20260906035405 | 25 | 0 | 0.0 | 0.0 | 0.00 | 0.00 | 0.00 | 97 | 1014.3 |
| 20260906034505 | 25 | 0 | 0.0 | 0.0 | 0.00 | 0.00 | 0.00 | 97 | 1014.3 |
| 20260906033604 | 25 | 0 | 0.0 | 0.0 | 0.00 | 0.00 | 0.00 | 97 | 1014.0 |
| 20260906032704 | 25 | 0 | 0.0 | 0.0 | 0.00 | 0.00 | 0.00 | 97 | 1014.1 |
| 20260906031804 | 25 | 0 | 0.0 | 0.0 | 0.00 | 0.00 | 0.00 | 96 | 1014.1 |
| 20260906030925 | 25 | 0 | 0.0 | 0.0 | 0.00 | 0.00 | 0.00 | 96 | 1014.0 |
| 20260906030004 | 25 | 0 | 0.0 | 0.0 | 0.00 | 0.00 | 0.00 | 96 | 1014.0 |
| 20260906025425 | 25 | 0 | 0.0 | 0.0 | 0.00 | 0.00 | 0.00 | 96 | 1013.9 |
| 20260906024504 | 25 | 0 | 0.0 | 0.0 | 0.00 | 0.00 | 0.00 | 95 | 1013.8 |
| 20260906023625 | 25 | 0 | 0.0 | 0.0 | 0.00 | 0.00 | 0.00 | 95 | 1013.8 |
| 20260906022704 | 25 | 0 | 0.0 | 0.0 | 0.00 | 0.00 | 0.00 | 95 | 1013.8 |
| 20260906021804 | 25 | 0 | 0.0 | 0.0 | 0.00 | 0.00 | 0.00 | 95 | 1013.6 |
| 20260906020904 | 26 | 0 | 0.0 | 0.0 | 0.00 | 0.00 | 0.00 | 94 | 1013.8 |
| 20260906020004 | 26 | 0 | 0.0 | 0.0 | 0.00 | 0.00 | 0.00 | 94 | 1013.8 |
| 20260906015404 | 26 | 0 | 0.0 | 0.0 | 0.00 | 0.00 | 0.00 | 94 | 1013.6 |
| 20260906014504 | 26 | 0 | 0.0 | 0.0 | 0.00 | 0.00 | 0.00 | 93 | 1013.3 |
| 20260906013604 | 26 | 0 | 0.0 | 0.0 | 0.00 | 0.00 | 0.00 | 92 | 1013.2 |
| 20260906012704 | 26 | 0 | 0.0 | 0.0 | 0.00 | 0.00 | 0.00 | 92 | 1013.0 |
| 20260906011825 | 26 | 0 | 0.0 | 0.0 | 0.00 | 0.00 | 0.00 | 91 | 1012.8 |
| 20260906010904 | 27 | 0 | 0.0 | 0.0 | 0.00 | 0.00 | 0.00 | 90 | 1012.8 |
| 20260906010025 | 27 | 0 | 0.0 | 0.0 | 0.00 | 0.00 | 0.00 | 89 | 1012.4 |
| 20260906005404 | 27 | 0 | 0.0 | 0.0 | 0.00 | 0.00 | 0.00 | 89 | 1012.3 |
| 20260906004504 | 27 | 0 | 0.0 | 0.0 | 0.00 | 0.00 | 0.00 | 88 | 1012.3 |
| 20260906003604 | 27 | 0 | 0.0 | 0.0 | 0.00 | 0.00 | 0.00 | 88 | 1012.0 |
| 20260906002704 | 27 | 0 | 0.0 | 0.0 | 0.00 | 0.00 | 0.00 | 87 | 1012.0 |
| 20260906001825 | 28 | 0 | 0.0 | 0.0 | 0.00 | 0.00 | 0.00 | 86 | 1012.2 |
| 20260906000904 | 28 | 0 | 0.0 | 0.0 | 0.00 | 0.00 | 0.00 | 85 | 1012.3 |
| 20260906000003 | 28 | 0 | 0.0 | 0.0 | 0.00 | 0.00 | 0.00 | 84 | 1012.3 |
| 20260905235403 | 28 | 0 | 0.0 | 0.0 | 0.00 | 0.00 | 0.00 | 84 | 1012.6 |
| 20260905234524 | 28 | 230 | 0.0 | 4.8 | 0.00 | 0.00 | 0.00 | 83 | 1012.6 |
| 20260905233603 | 29 | 221 | 0.0 | 3.2 | 0.00 | 0.00 | 0.00 | 83 | 1012.7 |
| 20260905232704 | 29 | 218 | 1.6 | 8.0 | 0.00 | 0.00 | 0.00 | 82 | 1012.7 |
| 20260905231803 | 29 | 222 | 3.2 | 9.7 | 0.00 | 0.00 | 0.00 | 82 | 1012.6 |
| 20260905230903 | 30 | 229 | 1.6 | 3.2 | 0.00 | 0.00 | 0.00 | 81 | 1012.7 |
| 20260905230004 | 30 | 237 | 3.2 | 6.4 | 0.00 | 0.00 | 0.00 | 80 | 1012.6 |
| 20260905225403 | 30 | 242 | 3.2 | 8.0 | 0.00 | 0.00 | 0.00 | 79 | 1012.6 |
| 20260905224503 | 30 | 213 | 1.6 | 6.4 | 0.00 | 0.00 | 0.00 | 78 | 1012.7 |
| 20260905223604 | 30 | 191 | 3.2 | 8.0 | 0.00 | 0.00 | 0.00 | 78 | 1012.9 |
| 20260905222703 | 31 | 210 | 3.2 | 8.0 | 0.00 | 0.00 | 0.00 | 76 | 1012.9 |
| 20260905221803 | 31 | 216 | 4.8 | 11.3 | 0.00 | 0.00 | 0.00 | 74 | 1012.7 |
| 20260905220903 | 31 | 217 | 3.2 | 11.3 | 0.00 | 0.00 | 0.00 | 74 | 1012.7 |
| 20260905220003 | 31 | 194 | 3.2 | 8.0 | 0.00 | 0.00 | 0.00 | 74 | 1012.7 |
| 20260905215403 | 31 | 186 | 3.2 | 8.0 | 0.00 | 0.00 | 0.00 | 74 | 1012.7 |
| 20260905214503 | 31 | 244 | 3.2 | 8.0 | 0.00 | 0.00 | 0.00 | 74 | 1012.8 |
| 20260905213603 | 31 | 217 | 3.2 | 9.7 | 0.00 | 0.00 | 0.00 | 72 | 1012.9 |
| 20260905212703 | 31 | 191 | 1.6 | 6.4 | 0.00 | 0.00 | 0.00 | 75 | 1012.7 |
| 20260905211804 | 30 | 190 | 3.2 | 8.0 | 0.00 | 0.00 | 0.00 | 77 | 1013.2 |
| 20260905210903 | 30 | 157 | 1.6 | 8.0 | 0.00 | 0.00 | 0.00 | 77 | 1013.2 |
| 20260905210003 | 30 | 196 | 4.8 | 9.7 | 0.00 | 0.00 | 0.00 | 76 | 1013.2 |
| 20260905205403 | 30 | 184 | 4.8 | 9.7 | 0.00 | 0.00 | 0.00 | 77 | 1013.2 |
| 20260905204505 | 30 | 182 | 4.8 | 9.7 | 0.00 | 0.00 | 0.00 | 80 | 1013.3 |
| 20260905203626 | 30 | 182 | 4.8 | 9.7 | 0.00 | 0.00 | 0.00 | 82 | 1013.7 |
| 20260905202726 | 30 | 193 | 4.8 | 9.7 | 0.00 | 0.00 | 0.00 | 81 | 1013.5 |
| 20260905201826 | 30 | 178 | 4.8 | 11.3 | 0.00 | 0.00 | 0.00 | 80 | 1013.6 |
| 20260905200906 | 30 | 189 | 4.8 | 11.3 | 0.00 | 0.00 | 0.00 | 78 | 1013.9 |
| 20260905200005 | 30 | 197 | 4.8 | 12.9 | 0.00 | 0.00 | 0.00 | 78 | 1014.0 |
| 20260905195405 | 30 | 188 | 4.8 | 12.9 | 0.00 | 0.00 | 0.00 | 79 | 1014.1 |
| 20260905194505 | 30 | 204 | 6.4 | 12.9 | 0.00 | 0.00 | 0.00 | 79 | 1014.3 |
| 20260905193605 | 29 | 181 | 6.4 | 12.9 | 0.00 | 0.00 | 0.00 | 81 | 1014.4 |
| 20260905192704 | 28 | 161 | 6.4 | 12.9 | 0.00 | 0.00 | 0.00 | 83 | 1014.5 |
| 20260905191805 | 28 | 188 | 4.8 | 14.5 | 0.00 | 0.00 | 0.00 | 83 | 1014.6 |
| 20260905190905 | 28 | 171 | 6.4 | 16.1 | 0.00 | 0.00 | 0.00 | 84 | 1014.5 |
| 20260905190005 | 27 | 197 | 4.8 | 11.3 | 0.00 | 0.00 | 0.00 | 85 | 1014.7 |
| 20260905185405 | 27 | 188 | 4.8 | 12.9 | 0.00 | 0.00 | 0.00 | 85 | 1014.9 |
| 20260905184505 | 27 | 195 | 4.8 | 12.9 | 0.00 | 0.00 | 0.00 | 86 | 1014.9 |
| 20260905183605 | 27 | 201 | 4.8 | 9.7 | 0.00 | 0.00 | 0.00 | 87 | 1015.1 |
| 20260905182704 | 27 | 193 | 4.8 | 11.3 | 0.00 | 0.00 | 0.00 | 87 | 1015.3 |
| 20260905181804 | 26 | 195 | 4.8 | 12.9 | 0.00 | 0.00 | 0.00 | 90 | 1015.5 |
| 20260905180905 | 26 | 212 | 6.4 | 12.9 | 0.00 | 0.00 | 0.00 | 90 | 1015.8 |
| 20260905180025 | 27 | 192 | 4.8 | 11.3 | 0.00 | 0.00 | 0.00 | 90 | 1016.0 |
| 20260905175404 | 26 | 195 | 6.4 | 17.7 | 0.00 | 0.00 | 0.00 | 90 | 1016.0 |
| 20260905174504 | 26 | 191 | 6.4 | 14.5 | 0.00 | 0.00 | 0.00 | 91 | 1016.2 |
| 20260905173604 | 26 | 204 | 6.4 | 12.9 | 0.00 | 0.00 | 0.00 | 91 | 1016.4 |
| 20260905172704 | 26 | 202 | 6.4 | 14.5 | 0.00 | 0.00 | 0.00 | 90 | 1016.6 |
| 20260905171825 | 26 | 216 | 4.8 | 11.3 | 0.00 | 0.00 | 0.00 | 91 | 1016.5 |
| 20260905170904 | 26 | 217 | 4.8 | 12.9 | 0.00 | 0.00 | 0.00 | 91 | 1016.7 |
| 20260905170004 | 26 | 214 | 6.4 | 16.1 | 0.00 | 0.00 | 0.00 | 92 | 1016.8 |
| 20260905165404 | 26 | 196 | 6.4 | 16.1 | 0.00 | 0.00 | 0.00 | 91 | 1016.8 |
| 20260905164525 | 26 | 215 | 4.8 | 14.5 | 0.00 | 0.00 | 0.00 | 91 | 1016.7 |
| 20260905163604 | 26 | 210 | 6.4 | 16.1 | 0.00 | 0.00 | 0.00 | 91 | 1016.8 |
| 20260905162704 | 26 | 241 | 6.4 | 12.9 | 0.00 | 0.00 | 0.00 | 91 | 1016.8 |
| 20260905161804 | 26 | 255 | 4.8 | 19.3 | 0.00 | 0.00 | 0.00 | 92 | 1016.8 |
| 20260905160904 | 26 | 242 | 3.2 | 19.3 | 0.00 | 0.00 | 0.00 | 92 | 1017.1 |
| 20260905160025 | 26 | 216 | 4.8 | 11.3 | 0.00 | 0.00 | 0.00 | 93 | 1017.2 |
| 20260905155404 | 26 | 209 | 6.4 | 24.1 | 0.00 | 0.00 | 0.00 | 93 | 1017.3 |
| 20260905154504 | 26 | 197 | 6.4 | 24.1 | 0.00 | 0.00 | 0.00 | 92 | 1017.3 |
| 20260905153604 | 26 | 207 | 6.4 | 12.9 | 0.00 | 0.00 | 0.00 | 92 | 1017.0 |
| 20260905152704 | 26 | 209 | 6.4 | 12.9 | 0.00 | 0.00 | 0.00 | 92 | 1016.6 |
| 20260905151804 | 26 | 205 | 6.4 | 14.5 | 0.00 | 0.00 | 0.00 | 91 | 1016.5 |
| 20260905150904 | 26 | 212 | 6.4 | 14.5 | 0.00 | 0.00 | 0.00 | 91 | 1016.5 |
| 20260905150004 | 26 | 200 | 6.4 | 14.5 | 0.00 | 0.00 | 0.00 | 91 | 1016.3 |
| 20260905145404 | 26 | 202 | 4.8 | 11.3 | 0.00 | 0.00 | 0.00 | 92 | 1016.2 |
| 20260905144504 | 26 | 215 | 4.8 | 11.3 | 0.00 | 0.00 | 0.00 | 91 | 1016.2 |